sensor_id;sensor_type;location;lat;lon;timestamp;P1;durP1;ratioP1;P2;durP2;ratioP2
29902;SDS011;30288;50.514;9.678;2024-02-26T00:01:01;11.63;;;7.65;;
29902;SDS011;30288;50.514;9.678;2024-02-26T00:03:06;13.05;;;7.95;;
29902;SDS011;30288;50.514;9.678;2024-02-26T00:05:12;13.55;;;7.93;;
29902;SDS011;30288;50.514;9.678;2024-02-26T00:07:17;15.65;;;8.70;;
29902;SDS011;30288;50.514;9.678;2024-02-26T00:09:26;15.43;;;8.35;;
29902;SDS011;30288;50.514;9.678;2024-02-26T00:11:29;14.07;;;8.55;;
29902;SDS011;30288;50.514;9.678;2024-02-26T00:13:35;14.50;;;8.05;;
29902;SDS011;30288;50.514;9.678;2024-02-26T00:15:41;17.08;;;8.52;;
29902;SDS011;30288;50.514;9.678;2024-02-26T00:17:46;13.15;;;7.93;;
29902;SDS011;30288;50.514;9.678;2024-02-26T00:19:51;14.80;;;8.75;;
29902;SDS011;30288;50.514;9.678;2024-02-26T00:21:59;15.73;;;9.18;;
29902;SDS011;30288;50.514;9.678;2024-02-26T00:24:04;15.85;;;8.48;;
29902;SDS011;30288;50.514;9.678;2024-02-26T00:26:14;14.20;;;8.63;;
29902;SDS011;30288;50.514;9.678;2024-02-26T00:28:20;16.75;;;8.52;;
29902;SDS011;30288;50.514;9.678;2024-02-26T00:30:26;14.40;;;9.55;;
29902;SDS011;30288;50.514;9.678;2024-02-26T00:32:31;15.18;;;10.07;;
29902;SDS011;30288;50.514;9.678;2024-02-26T00:34:37;17.15;;;10.15;;
29902;SDS011;30288;50.514;9.678;2024-02-26T00:36:42;16.98;;;9.05;;
29902;SDS011;30288;50.514;9.678;2024-02-26T00:40:52;14.73;;;9.38;;
29902;SDS011;30288;50.514;9.678;2024-02-26T00:43:00;18.67;;;9.60;;
29902;SDS011;30288;50.514;9.678;2024-02-26T00:45:06;14.65;;;9.65;;
29902;SDS011;30288;50.514;9.678;2024-02-26T00:47:10;17.17;;;9.30;;
29902;SDS011;30288;50.514;9.678;2024-02-26T00:49:16;14.25;;;8.98;;
29902;SDS011;30288;50.514;9.678;2024-02-26T00:51:22;15.45;;;8.32;;
29902;SDS011;30288;50.514;9.678;2024-02-26T00:53:28;15.93;;;9.15;;
29902;SDS011;30288;50.514;9.678;2024-02-26T00:55:33;14.35;;;9.30;;
29902;SDS011;30288;50.514;9.678;2024-02-26T00:57:38;13.73;;;8.43;;
29902;SDS011;30288;50.514;9.678;2024-02-26T00:59:47;15.32;;;8.52;;
29902;SDS011;30288;50.514;9.678;2024-02-26T01:01:53;15.10;;;8.82;;
29902;SDS011;30288;50.514;9.678;2024-02-26T01:04:00;13.05;;;8.23;;
29902;SDS011;30288;50.514;9.678;2024-02-26T01:06:05;12.75;;;7.38;;
29902;SDS011;30288;50.514;9.678;2024-02-26T01:08:11;14.23;;;8.10;;
29902;SDS011;30288;50.514;9.678;2024-02-26T01:10:16;14.25;;;8.00;;
29902;SDS011;30288;50.514;9.678;2024-02-26T01:12:22;16.27;;;7.82;;
29902;SDS011;30288;50.514;9.678;2024-02-26T01:14:27;15.57;;;8.20;;
29902;SDS011;30288;50.514;9.678;2024-02-26T01:16:33;12.48;;;7.63;;
29902;SDS011;30288;50.514;9.678;2024-02-26T01:18:38;17.85;;;8.30;;
29902;SDS011;30288;50.514;9.678;2024-02-26T01:20:43;16.52;;;8.73;;
29902;SDS011;30288;50.514;9.678;2024-02-26T01:22:46;15.40;;;7.95;;
29902;SDS011;30288;50.514;9.678;2024-02-26T01:24:51;16.20;;;7.90;;
29902;SDS011;30288;50.514;9.678;2024-02-26T01:26:58;12.25;;;7.70;;
29902;SDS011;30288;50.514;9.678;2024-02-26T01:29:03;12.85;;;7.70;;
29902;SDS011;30288;50.514;9.678;2024-02-26T01:31:11;15.18;;;7.65;;
29902;SDS011;30288;50.514;9.678;2024-02-26T01:33:19;16.42;;;9.18;;
29902;SDS011;30288;50.514;9.678;2024-02-26T01:35:25;19.58;;;8.52;;
29902;SDS011;30288;50.514;9.678;2024-02-26T01:37:30;20.95;;;8.90;;
29902;SDS011;30288;50.514;9.678;2024-02-26T01:39:37;18.00;;;8.68;;
29902;SDS011;30288;50.514;9.678;2024-02-26T01:41:43;16.05;;;8.55;;
29902;SDS011;30288;50.514;9.678;2024-02-26T01:43:48;17.77;;;8.63;;
29902;SDS011;30288;50.514;9.678;2024-02-26T01:45:53;12.90;;;7.90;;
29902;SDS011;30288;50.514;9.678;2024-02-26T01:48:00;15.43;;;7.80;;
29902;SDS011;30288;50.514;9.678;2024-02-26T01:50:09;17.60;;;8.35;;
29902;SDS011;30288;50.514;9.678;2024-02-26T01:52:14;17.75;;;9.25;;
29902;SDS011;30288;50.514;9.678;2024-02-26T01:54:20;17.27;;;9.07;;
29902;SDS011;30288;50.514;9.678;2024-02-26T01:56:26;119.95;;;30.17;;
29902;SDS011;30288;50.514;9.678;2024-02-26T01:58:41;87.65;;;25.17;;
29902;SDS011;30288;50.514;9.678;2024-02-26T02:00:48;85.47;;;22.60;;
29902;SDS011;30288;50.514;9.678;2024-02-26T02:02:53;60.33;;;19.60;;
29902;SDS011;30288;50.514;9.678;2024-02-26T02:04:57;56.08;;;17.98;;
29902;SDS011;30288;50.514;9.678;2024-02-26T02:07:05;32.40;;;12.93;;
29902;SDS011;30288;50.514;9.678;2024-02-26T02:09:11;25.45;;;9.50;;
29902;SDS011;30288;50.514;9.678;2024-02-26T02:11:17;20.30;;;9.85;;
29902;SDS011;30288;50.514;9.678;2024-02-26T02:13:22;20.70;;;9.20;;
29902;SDS011;30288;50.514;9.678;2024-02-26T02:15:27;21.70;;;9.32;;
29902;SDS011;30288;50.514;9.678;2024-02-26T02:17:39;20.58;;;10.38;;
29902;SDS011;30288;50.514;9.678;2024-02-26T02:19:44;18.52;;;9.40;;
29902;SDS011;30288;50.514;9.678;2024-02-26T02:21:53;22.58;;;9.98;;
29902;SDS011;30288;50.514;9.678;2024-02-26T02:23:58;19.33;;;9.27;;
29902;SDS011;30288;50.514;9.678;2024-02-26T02:28:07;19.08;;;9.02;;
29902;SDS011;30288;50.514;9.678;2024-02-26T02:30:14;16.27;;;7.65;;
29902;SDS011;30288;50.514;9.678;2024-02-26T02:32:20;14.73;;;8.43;;
29902;SDS011;30288;50.514;9.678;2024-02-26T02:34:26;15.15;;;8.02;;
29902;SDS011;30288;50.514;9.678;2024-02-26T02:36:32;16.65;;;7.68;;
29902;SDS011;30288;50.514;9.678;2024-02-26T02:38:44;19.02;;;7.70;;
29902;SDS011;30288;50.514;9.678;2024-02-26T02:40:54;16.50;;;8.18;;
29902;SDS011;30288;50.514;9.678;2024-02-26T02:43:00;23.27;;;9.23;;
29902;SDS011;30288;50.514;9.678;2024-02-26T02:45:06;19.90;;;9.15;;
29902;SDS011;30288;50.514;9.678;2024-02-26T02:47:10;22.13;;;11.43;;
29902;SDS011;30288;50.514;9.678;2024-02-26T02:49:16;30.67;;;14.85;;
29902;SDS011;30288;50.514;9.678;2024-02-26T02:51:22;25.63;;;11.05;;
29902;SDS011;30288;50.514;9.678;2024-02-26T02:53:27;20.67;;;10.73;;
29902;SDS011;30288;50.514;9.678;2024-02-26T02:55:35;30.02;;;16.83;;
29902;SDS011;30288;50.514;9.678;2024-02-26T02:57:41;64.07;;;33.03;;
29902;SDS011;30288;50.514;9.678;2024-02-26T02:59:46;49.33;;;27.38;;
29902;SDS011;30288;50.514;9.678;2024-02-26T03:01:52;36.92;;;19.50;;
29902;SDS011;30288;50.514;9.678;2024-02-26T03:03:57;34.78;;;18.98;;
29902;SDS011;30288;50.514;9.678;2024-02-26T03:06:03;33.45;;;17.48;;
29902;SDS011;30288;50.514;9.678;2024-02-26T03:08:09;52.60;;;28.40;;
29902;SDS011;30288;50.514;9.678;2024-02-26T03:10:12;45.95;;;23.90;;
29902;SDS011;30288;50.514;9.678;2024-02-26T03:12:21;37.33;;;18.35;;
29902;SDS011;30288;50.514;9.678;2024-02-26T03:14:27;53.13;;;26.92;;
29902;SDS011;30288;50.514;9.678;2024-02-26T03:16:33;46.63;;;22.38;;
29902;SDS011;30288;50.514;9.678;2024-02-26T03:18:39;46.88;;;21.08;;
29902;SDS011;30288;50.514;9.678;2024-02-26T03:20:46;39.55;;;19.05;;
29902;SDS011;30288;50.514;9.678;2024-02-26T03:22:49;25.88;;;13.48;;
29902;SDS011;30288;50.514;9.678;2024-02-26T03:24:54;22.13;;;10.55;;
29902;SDS011;30288;50.514;9.678;2024-02-26T03:26:57;22.48;;;11.45;;
29902;SDS011;30288;50.514;9.678;2024-02-26T03:29:05;21.05;;;11.18;;
29902;SDS011;30288;50.514;9.678;2024-02-26T03:31:11;18.17;;;9.48;;
29902;SDS011;30288;50.514;9.678;2024-02-26T03:33:16;15.85;;;8.93;;
29902;SDS011;30288;50.514;9.678;2024-02-26T03:35:22;15.90;;;8.90;;
29902;SDS011;30288;50.514;9.678;2024-02-26T03:37:30;13.82;;;7.57;;
29902;SDS011;30288;50.514;9.678;2024-02-26T03:39:36;14.18;;;6.70;;
29902;SDS011;30288;50.514;9.678;2024-02-26T03:41:42;13.57;;;7.93;;
29902;SDS011;30288;50.514;9.678;2024-02-26T03:43:47;13.98;;;6.93;;
29902;SDS011;30288;50.514;9.678;2024-02-26T03:45:55;12.00;;;7.88;;
29902;SDS011;30288;50.514;9.678;2024-02-26T03:48:00;13.93;;;7.28;;
29902;SDS011;30288;50.514;9.678;2024-02-26T03:50:06;14.35;;;7.95;;
29902;SDS011;30288;50.514;9.678;2024-02-26T03:52:13;14.68;;;7.88;;
29902;SDS011;30288;50.514;9.678;2024-02-26T03:54:22;17.83;;;8.23;;
29902;SDS011;30288;50.514;9.678;2024-02-26T03:56:28;14.82;;;8.63;;
29902;SDS011;30288;50.514;9.678;2024-02-26T03:58:34;14.88;;;8.95;;
29902;SDS011;30288;50.514;9.678;2024-02-26T04:00:40;14.50;;;7.55;;
29902;SDS011;30288;50.514;9.678;2024-02-26T04:02:52;13.73;;;7.07;;
29902;SDS011;30288;50.514;9.678;2024-02-26T04:04:57;12.30;;;6.45;;
29902;SDS011;30288;50.514;9.678;2024-02-26T04:07:03;11.15;;;6.70;;
29902;SDS011;30288;50.514;9.678;2024-02-26T04:09:09;11.02;;;6.75;;
29902;SDS011;30288;50.514;9.678;2024-02-26T04:11:15;12.13;;;6.28;;
29902;SDS011;30288;50.514;9.678;2024-02-26T04:13:22;10.15;;;6.25;;
29902;SDS011;30288;50.514;9.678;2024-02-26T04:15:27;11.13;;;5.70;;
29902;SDS011;30288;50.514;9.678;2024-02-26T04:17:33;12.93;;;6.25;;
29902;SDS011;30288;50.514;9.678;2024-02-26T04:19:41;13.70;;;6.28;;
29902;SDS011;30288;50.514;9.678;2024-02-26T04:21:46;15.20;;;6.50;;
29902;SDS011;30288;50.514;9.678;2024-02-26T04:23:52;13.27;;;7.18;;
29902;SDS011;30288;50.514;9.678;2024-02-26T04:25:58;12.48;;;6.45;;
29902;SDS011;30288;50.514;9.678;2024-02-26T04:28:04;13.05;;;6.78;;
29902;SDS011;30288;50.514;9.678;2024-02-26T04:30:09;10.77;;;6.35;;
29902;SDS011;30288;50.514;9.678;2024-02-26T04:32:16;12.70;;;7.75;;
29902;SDS011;30288;50.514;9.678;2024-02-26T04:34:21;12.60;;;7.50;;
29902;SDS011;30288;50.514;9.678;2024-02-26T04:36:29;14.27;;;6.95;;
29902;SDS011;30288;50.514;9.678;2024-02-26T04:38:35;12.90;;;7.40;;
29902;SDS011;30288;50.514;9.678;2024-02-26T04:40:40;14.10;;;6.40;;
29902;SDS011;30288;50.514;9.678;2024-02-26T04:42:46;11.65;;;7.22;;
29902;SDS011;30288;50.514;9.678;2024-02-26T04:44:49;12.57;;;7.20;;
29902;SDS011;30288;50.514;9.678;2024-02-26T04:46:55;13.88;;;6.45;;
29902;SDS011;30288;50.514;9.678;2024-02-26T04:49:00;13.85;;;6.80;;
29902;SDS011;30288;50.514;9.678;2024-02-26T04:51:08;12.55;;;6.85;;
29902;SDS011;30288;50.514;9.678;2024-02-26T04:53:16;12.13;;;6.38;;
29902;SDS011;30288;50.514;9.678;2024-02-26T04:55:22;11.95;;;5.78;;
29902;SDS011;30288;50.514;9.678;2024-02-26T04:57:28;11.55;;;5.43;;
29902;SDS011;30288;50.514;9.678;2024-02-26T04:59:34;13.85;;;7.07;;
29902;SDS011;30288;50.514;9.678;2024-02-26T05:01:37;10.77;;;6.22;;
29902;SDS011;30288;50.514;9.678;2024-02-26T05:03:44;11.32;;;6.32;;
29902;SDS011;30288;50.514;9.678;2024-02-26T05:05:49;12.32;;;6.47;;
29902;SDS011;30288;50.514;9.678;2024-02-26T05:07:55;13.48;;;5.95;;
29902;SDS011;30288;50.514;9.678;2024-02-26T05:10:07;12.45;;;7.18;;
29902;SDS011;30288;50.514;9.678;2024-02-26T05:12:13;11.40;;;6.53;;
29902;SDS011;30288;50.514;9.678;2024-02-26T05:14:19;12.80;;;6.78;;
29902;SDS011;30288;50.514;9.678;2024-02-26T05:16:24;16.95;;;7.50;;
29902;SDS011;30288;50.514;9.678;2024-02-26T05:18:31;16.48;;;8.05;;
29902;SDS011;30288;50.514;9.678;2024-02-26T05:20:37;17.52;;;7.65;;
29902;SDS011;30288;50.514;9.678;2024-02-26T05:22:43;13.50;;;6.93;;
29902;SDS011;30288;50.514;9.678;2024-02-26T05:24:48;14.60;;;7.22;;
29902;SDS011;30288;50.514;9.678;2024-02-26T05:26:56;13.68;;;7.65;;
29902;SDS011;30288;50.514;9.678;2024-02-26T05:29:03;13.65;;;7.40;;
29902;SDS011;30288;50.514;9.678;2024-02-26T05:31:06;12.25;;;7.75;;
29902;SDS011;30288;50.514;9.678;2024-02-26T05:33:12;13.25;;;8.20;;
29902;SDS011;30288;50.514;9.678;2024-02-26T05:35:20;13.20;;;6.22;;
29902;SDS011;30288;50.514;9.678;2024-02-26T05:37:26;13.30;;;6.90;;
29902;SDS011;30288;50.514;9.678;2024-02-26T05:39:31;14.45;;;6.90;;
29902;SDS011;30288;50.514;9.678;2024-02-26T05:41:37;13.25;;;7.38;;
29902;SDS011;30288;50.514;9.678;2024-02-26T05:43:42;14.05;;;7.25;;
29902;SDS011;30288;50.514;9.678;2024-02-26T05:45:47;12.90;;;7.63;;
29902;SDS011;30288;50.514;9.678;2024-02-26T05:47:52;10.07;;;6.38;;
29902;SDS011;30288;50.514;9.678;2024-02-26T05:49:58;12.85;;;6.85;;
29902;SDS011;30288;50.514;9.678;2024-02-26T05:52:02;11.40;;;6.57;;
29902;SDS011;30288;50.514;9.678;2024-02-26T05:54:08;13.20;;;6.38;;
29902;SDS011;30288;50.514;9.678;2024-02-26T05:56:13;12.40;;;6.93;;
29902;SDS011;30288;50.514;9.678;2024-02-26T05:58:19;12.80;;;6.38;;
29902;SDS011;30288;50.514;9.678;2024-02-26T06:00:28;12.38;;;6.03;;
29902;SDS011;30288;50.514;9.678;2024-02-26T06:02:34;12.82;;;6.00;;
29902;SDS011;30288;50.514;9.678;2024-02-26T06:04:39;10.85;;;5.75;;
29902;SDS011;30288;50.514;9.678;2024-02-26T06:06:42;11.68;;;5.65;;
29902;SDS011;30288;50.514;9.678;2024-02-26T06:08:48;12.43;;;6.05;;
29902;SDS011;30288;50.514;9.678;2024-02-26T06:10:54;12.43;;;6.30;;
29902;SDS011;30288;50.514;9.678;2024-02-26T06:12:59;13.77;;;6.85;;
29902;SDS011;30288;50.514;9.678;2024-02-26T06:15:05;14.68;;;6.93;;
29902;SDS011;30288;50.514;9.678;2024-02-26T06:17:14;14.95;;;7.10;;
29902;SDS011;30288;50.514;9.678;2024-02-26T06:19:19;15.13;;;8.05;;
29902;SDS011;30288;50.514;9.678;2024-02-26T06:21:25;12.98;;;7.28;;
29902;SDS011;30288;50.514;9.678;2024-02-26T06:23:30;12.25;;;6.50;;
29902;SDS011;30288;50.514;9.678;2024-02-26T06:25:33;12.95;;;7.32;;
29902;SDS011;30288;50.514;9.678;2024-02-26T06:27:40;13.50;;;7.00;;
29902;SDS011;30288;50.514;9.678;2024-02-26T06:29:47;11.35;;;6.20;;
29902;SDS011;30288;50.514;9.678;2024-02-26T06:31:50;13.07;;;6.60;;
29902;SDS011;30288;50.514;9.678;2024-02-26T06:33:58;10.70;;;5.65;;
29902;SDS011;30288;50.514;9.678;2024-02-26T06:36:05;10.85;;;6.10;;
29902;SDS011;30288;50.514;9.678;2024-02-26T06:38:11;11.73;;;5.60;;
29902;SDS011;30288;50.514;9.678;2024-02-26T06:40:15;11.57;;;5.13;;
29902;SDS011;30288;50.514;9.678;2024-02-26T06:42:20;11.50;;;4.93;;
29902;SDS011;30288;50.514;9.678;2024-02-26T06:44:27;8.80;;;4.60;;
29902;SDS011;30288;50.514;9.678;2024-02-26T06:46:34;10.00;;;4.85;;
29902;SDS011;30288;50.514;9.678;2024-02-26T06:48:40;7.47;;;4.32;;
29902;SDS011;30288;50.514;9.678;2024-02-26T06:50:49;9.73;;;4.57;;
29902;SDS011;30288;50.514;9.678;2024-02-26T06:52:54;8.70;;;4.63;;
29902;SDS011;30288;50.514;9.678;2024-02-26T06:55:00;9.15;;;4.43;;
29902;SDS011;30288;50.514;9.678;2024-02-26T06:57:06;8.13;;;4.20;;
29902;SDS011;30288;50.514;9.678;2024-02-26T06:59:12;8.90;;;4.53;;
29902;SDS011;30288;50.514;9.678;2024-02-26T07:01:17;13.15;;;5.50;;
29902;SDS011;30288;50.514;9.678;2024-02-26T07:03:25;12.13;;;5.32;;
29902;SDS011;30288;50.514;9.678;2024-02-26T07:05:32;10.50;;;4.85;;
29902;SDS011;30288;50.514;9.678;2024-02-26T07:07:41;10.00;;;5.03;;
29902;SDS011;30288;50.514;9.678;2024-02-26T07:09:47;9.90;;;5.40;;
29902;SDS011;30288;50.514;9.678;2024-02-26T07:11:52;11.15;;;4.47;;
29902;SDS011;30288;50.514;9.678;2024-02-26T07:14:01;9.32;;;4.65;;
29902;SDS011;30288;50.514;9.678;2024-02-26T07:16:05;9.75;;;4.88;;
29902;SDS011;30288;50.514;9.678;2024-02-26T07:18:13;9.80;;;4.85;;
29902;SDS011;30288;50.514;9.678;2024-02-26T07:20:18;11.68;;;5.18;;
29902;SDS011;30288;50.514;9.678;2024-02-26T07:22:26;8.43;;;4.57;;
29902;SDS011;30288;50.514;9.678;2024-02-26T07:24:35;9.80;;;4.93;;
29902;SDS011;30288;50.514;9.678;2024-02-26T07:26:40;8.70;;;4.60;;
29902;SDS011;30288;50.514;9.678;2024-02-26T07:28:51;8.77;;;4.75;;
29902;SDS011;30288;50.514;9.678;2024-02-26T07:31:00;12.15;;;5.57;;
29902;SDS011;30288;50.514;9.678;2024-02-26T07:33:09;12.82;;;5.93;;
29902;SDS011;30288;50.514;9.678;2024-02-26T07:35:18;10.40;;;5.25;;
29902;SDS011;30288;50.514;9.678;2024-02-26T07:39:28;10.70;;;4.85;;
29902;SDS011;30288;50.514;9.678;2024-02-26T07:41:36;12.25;;;5.45;;
29902;SDS011;30288;50.514;9.678;2024-02-26T07:43:43;8.43;;;4.63;;
29902;SDS011;30288;50.514;9.678;2024-02-26T07:45:48;9.15;;;4.47;;
29902;SDS011;30288;50.514;9.678;2024-02-26T07:47:54;10.50;;;5.05;;
29902;SDS011;30288;50.514;9.678;2024-02-26T07:50:00;8.52;;;4.38;;
29902;SDS011;30288;50.514;9.678;2024-02-26T07:52:03;10.02;;;5.13;;
29902;SDS011;30288;50.514;9.678;2024-02-26T07:54:09;8.75;;;4.72;;
29902;SDS011;30288;50.514;9.678;2024-02-26T07:56:15;9.13;;;4.88;;
29902;SDS011;30288;50.514;9.678;2024-02-26T07:58:23;9.10;;;4.45;;
29902;SDS011;30288;50.514;9.678;2024-02-26T08:00:30;7.15;;;4.10;;
29902;SDS011;30288;50.514;9.678;2024-02-26T08:02:36;11.30;;;4.70;;
29902;SDS011;30288;50.514;9.678;2024-02-26T08:04:39;13.48;;;4.63;;
29902;SDS011;30288;50.514;9.678;2024-02-26T08:06:44;10.00;;;5.10;;
29902;SDS011;30288;50.514;9.678;2024-02-26T08:08:51;9.60;;;4.63;;
29902;SDS011;30288;50.514;9.678;2024-02-26T08:10:57;10.73;;;5.47;;
29902;SDS011;30288;50.514;9.678;2024-02-26T08:13:02;9.85;;;4.35;;
29902;SDS011;30288;50.514;9.678;2024-02-26T08:15:10;10.75;;;4.63;;
29902;SDS011;30288;50.514;9.678;2024-02-26T08:17:16;10.05;;;5.13;;
29902;SDS011;30288;50.514;9.678;2024-02-26T08:19:21;10.10;;;5.93;;
29902;SDS011;30288;50.514;9.678;2024-02-26T08:21:27;12.88;;;5.32;;
29902;SDS011;30288;50.514;9.678;2024-02-26T08:23:30;9.43;;;4.80;;
29902;SDS011;30288;50.514;9.678;2024-02-26T08:25:35;9.25;;;4.60;;
29902;SDS011;30288;50.514;9.678;2024-02-26T08:27:41;9.88;;;4.78;;
29902;SDS011;30288;50.514;9.678;2024-02-26T08:29:44;10.63;;;4.68;;
29902;SDS011;30288;50.514;9.678;2024-02-26T08:31:52;11.40;;;5.25;;
29902;SDS011;30288;50.514;9.678;2024-02-26T08:33:58;9.10;;;4.70;;
29902;SDS011;30288;50.514;9.678;2024-02-26T08:36:04;9.07;;;4.30;;
29902;SDS011;30288;50.514;9.678;2024-02-26T08:38:10;9.93;;;4.78;;
29902;SDS011;30288;50.514;9.678;2024-02-26T08:40:13;7.18;;;3.95;;
29902;SDS011;30288;50.514;9.678;2024-02-26T08:42:21;11.25;;;4.57;;
29902;SDS011;30288;50.514;9.678;2024-02-26T08:44:26;9.07;;;4.57;;
29902;SDS011;30288;50.514;9.678;2024-02-26T08:46:31;10.00;;;4.28;;
29902;SDS011;30288;50.514;9.678;2024-02-26T08:48:41;10.60;;;4.68;;
29902;SDS011;30288;50.514;9.678;2024-02-26T08:50:47;8.68;;;4.18;;
29902;SDS011;30288;50.514;9.678;2024-02-26T08:52:53;8.90;;;4.28;;
29902;SDS011;30288;50.514;9.678;2024-02-26T08:54:59;8.73;;;4.13;;
29902;SDS011;30288;50.514;9.678;2024-02-26T08:57:04;10.00;;;4.65;;
29902;SDS011;30288;50.514;9.678;2024-02-26T08:59:10;12.65;;;4.50;;
29902;SDS011;30288;50.514;9.678;2024-02-26T09:01:18;9.15;;;4.15;;
29902;SDS011;30288;50.514;9.678;2024-02-26T09:03:26;9.55;;;4.32;;
29902;SDS011;30288;50.514;9.678;2024-02-26T09:05:37;10.00;;;4.28;;
29902;SDS011;30288;50.514;9.678;2024-02-26T09:07:43;10.50;;;4.57;;
29902;SDS011;30288;50.514;9.678;2024-02-26T09:09:49;10.43;;;4.82;;
29902;SDS011;30288;50.514;9.678;2024-02-26T09:11:52;8.57;;;4.32;;
29902;SDS011;30288;50.514;9.678;2024-02-26T09:13:58;7.80;;;4.53;;
29902;SDS011;30288;50.514;9.678;2024-02-26T09:16:05;9.15;;;4.03;;
29902;SDS011;30288;50.514;9.678;2024-02-26T09:18:12;8.70;;;4.15;;
29902;SDS011;30288;50.514;9.678;2024-02-26T09:20:17;9.45;;;4.22;;
29902;SDS011;30288;50.514;9.678;2024-02-26T09:22:27;10.88;;;4.90;;
29902;SDS011;30288;50.514;9.678;2024-02-26T09:24:33;9.43;;;5.03;;
29902;SDS011;30288;50.514;9.678;2024-02-26T09:26:39;9.80;;;5.15;;
29902;SDS011;30288;50.514;9.678;2024-02-26T09:28:44;9.65;;;4.78;;
29902;SDS011;30288;50.514;9.678;2024-02-26T09:30:50;12.30;;;4.60;;
29902;SDS011;30288;50.514;9.678;2024-02-26T09:32:56;12.20;;;4.80;;
29902;SDS011;30288;50.514;9.678;2024-02-26T09:34:59;12.63;;;4.40;;
29902;SDS011;30288;50.514;9.678;2024-02-26T09:37:05;8.02;;;4.15;;
29902;SDS011;30288;50.514;9.678;2024-02-26T09:39:24;7.88;;;4.05;;
29902;SDS011;30288;50.514;9.678;2024-02-26T09:41:30;8.27;;;4.05;;
29902;SDS011;30288;50.514;9.678;2024-02-26T09:43:35;8.88;;;4.20;;
29902;SDS011;30288;50.514;9.678;2024-02-26T09:45:43;10.18;;;4.45;;
29902;SDS011;30288;50.514;9.678;2024-02-26T09:47:49;12.85;;;4.47;;
29902;SDS011;30288;50.514;9.678;2024-02-26T09:49:55;9.70;;;5.03;;
29902;SDS011;30288;50.514;9.678;2024-02-26T09:51:58;10.07;;;4.38;;
29902;SDS011;30288;50.514;9.678;2024-02-26T09:54:07;10.35;;;4.80;;
29902;SDS011;30288;50.514;9.678;2024-02-26T09:56:17;9.40;;;4.75;;
29902;SDS011;30288;50.514;9.678;2024-02-26T09:58:23;11.30;;;5.00;;
29902;SDS011;30288;50.514;9.678;2024-02-26T10:00:32;8.85;;;4.57;;
29902;SDS011;30288;50.514;9.678;2024-02-26T10:02:42;8.85;;;4.53;;
29902;SDS011;30288;50.514;9.678;2024-02-26T10:04:45;8.95;;;4.72;;
29902;SDS011;30288;50.514;9.678;2024-02-26T10:06:53;8.60;;;4.75;;
29902;SDS011;30288;50.514;9.678;2024-02-26T10:09:01;11.23;;;5.38;;
29902;SDS011;30288;50.514;9.678;2024-02-26T10:11:08;8.10;;;4.30;;
29902;SDS011;30288;50.514;9.678;2024-02-26T10:13:18;9.07;;;4.88;;
29902;SDS011;30288;50.514;9.678;2024-02-26T10:15:25;13.43;;;5.10;;
29902;SDS011;30288;50.514;9.678;2024-02-26T10:17:31;9.68;;;4.95;;
29902;SDS011;30288;50.514;9.678;2024-02-26T10:19:38;10.70;;;4.93;;
29902;SDS011;30288;50.514;9.678;2024-02-26T10:21:43;11.07;;;4.88;;
29902;SDS011;30288;50.514;9.678;2024-02-26T10:23:49;11.95;;;4.53;;
29902;SDS011;30288;50.514;9.678;2024-02-26T10:25:55;10.65;;;4.97;;
29902;SDS011;30288;50.514;9.678;2024-02-26T10:28:01;11.57;;;4.90;;
29902;SDS011;30288;50.514;9.678;2024-02-26T10:30:17;10.15;;;4.65;;
29902;SDS011;30288;50.514;9.678;2024-02-26T10:32:27;11.13;;;4.78;;
29902;SDS011;30288;50.514;9.678;2024-02-26T10:34:33;12.43;;;5.25;;
29902;SDS011;30288;50.514;9.678;2024-02-26T10:36:43;13.07;;;6.55;;
29902;SDS011;30288;50.514;9.678;2024-02-26T10:38:55;8.85;;;4.88;;
29902;SDS011;30288;50.514;9.678;2024-02-26T10:41:06;12.75;;;4.80;;
29902;SDS011;30288;50.514;9.678;2024-02-26T10:43:13;10.90;;;5.40;;
29902;SDS011;30288;50.514;9.678;2024-02-26T10:45:22;8.10;;;4.65;;
29902;SDS011;30288;50.514;9.678;2024-02-26T10:47:28;9.82;;;4.57;;
29902;SDS011;30288;50.514;9.678;2024-02-26T10:49:35;10.68;;;4.85;;
29902;SDS011;30288;50.514;9.678;2024-02-26T10:51:42;13.15;;;5.13;;
29902;SDS011;30288;50.514;9.678;2024-02-26T10:53:49;14.35;;;4.97;;
29902;SDS011;30288;50.514;9.678;2024-02-26T10:56:03;11.02;;;5.18;;
29902;SDS011;30288;50.514;9.678;2024-02-26T10:58:10;10.77;;;6.13;;
29902;SDS011;30288;50.514;9.678;2024-02-26T11:00:16;10.85;;;5.60;;
29902;SDS011;30288;50.514;9.678;2024-02-26T11:02:26;11.60;;;5.75;;
29902;SDS011;30288;50.514;9.678;2024-02-26T11:04:32;10.93;;;5.05;;
29902;SDS011;30288;50.514;9.678;2024-02-26T11:06:41;10.20;;;5.22;;
29902;SDS011;30288;50.514;9.678;2024-02-26T11:08:50;11.45;;;5.25;;
29902;SDS011;30288;50.514;9.678;2024-02-26T11:10:56;11.43;;;6.07;;
29902;SDS011;30288;50.514;9.678;2024-02-26T11:13:01;11.10;;;4.78;;
29902;SDS011;30288;50.514;9.678;2024-02-26T11:15:09;10.77;;;5.28;;
29902;SDS011;30288;50.514;9.678;2024-02-26T11:17:16;11.95;;;5.47;;
29902;SDS011;30288;50.514;9.678;2024-02-26T11:19:24;12.60;;;5.25;;
29902;SDS011;30288;50.514;9.678;2024-02-26T11:21:31;10.20;;;5.22;;
29902;SDS011;30288;50.514;9.678;2024-02-26T11:23:40;14.73;;;5.20;;
29902;SDS011;30288;50.514;9.678;2024-02-26T11:25:46;10.35;;;5.03;;
29902;SDS011;30288;50.514;9.678;2024-02-26T11:27:54;11.20;;;5.07;;
29902;SDS011;30288;50.514;9.678;2024-02-26T11:30:08;11.63;;;4.60;;
29902;SDS011;30288;50.514;9.678;2024-02-26T11:32:15;8.80;;;4.40;;
29902;SDS011;30288;50.514;9.678;2024-02-26T11:34:24;13.65;;;5.25;;
29902;SDS011;30288;50.514;9.678;2024-02-26T11:36:31;12.25;;;5.30;;
29902;SDS011;30288;50.514;9.678;2024-02-26T11:38:39;8.93;;;4.63;;
29902;SDS011;30288;50.514;9.678;2024-02-26T11:40:45;10.68;;;5.38;;
29902;SDS011;30288;50.514;9.678;2024-02-26T11:42:51;10.15;;;5.60;;
29902;SDS011;30288;50.514;9.678;2024-02-26T11:44:57;9.57;;;5.35;;
29902;SDS011;30288;50.514;9.678;2024-02-26T11:47:10;9.15;;;4.93;;
29902;SDS011;30288;50.514;9.678;2024-02-26T11:53:46;8.80;;;5.90;;
29902;SDS011;30288;50.514;9.678;2024-02-26T11:58:32;12.82;;;5.75;;
29902;SDS011;30288;50.514;9.678;2024-02-26T12:00:39;12.65;;;5.18;;
29902;SDS011;30288;50.514;9.678;2024-02-26T12:02:46;12.07;;;5.55;;
29902;SDS011;30288;50.514;9.678;2024-02-26T12:05:04;12.32;;;5.50;;
29902;SDS011;30288;50.514;9.678;2024-02-26T12:07:13;9.80;;;5.03;;
29902;SDS011;30288;50.514;9.678;2024-02-26T12:09:32;10.07;;;5.05;;
29902;SDS011;30288;50.514;9.678;2024-02-26T12:11:42;10.63;;;5.38;;
29902;SDS011;30288;50.514;9.678;2024-02-26T12:13:46;12.13;;;5.43;;
29902;SDS011;30288;50.514;9.678;2024-02-26T12:15:54;11.32;;;5.53;;
29902;SDS011;30288;50.514;9.678;2024-02-26T12:18:03;9.73;;;4.60;;
29902;SDS011;30288;50.514;9.678;2024-02-26T12:20:15;10.02;;;5.25;;
29902;SDS011;30288;50.514;9.678;2024-02-26T12:22:23;10.38;;;5.20;;
29902;SDS011;30288;50.514;9.678;2024-02-26T12:24:30;7.65;;;4.68;;
29902;SDS011;30288;50.514;9.678;2024-02-26T12:26:35;10.20;;;4.90;;
29902;SDS011;30288;50.514;9.678;2024-02-26T12:28:40;6.70;;;3.60;;
29902;SDS011;30288;50.514;9.678;2024-02-26T12:30:47;9.18;;;4.35;;
29902;SDS011;30288;50.514;9.678;2024-02-26T12:32:53;9.13;;;4.55;;
29902;SDS011;30288;50.514;9.678;2024-02-26T12:35:02;10.35;;;4.60;;
29902;SDS011;30288;50.514;9.678;2024-02-26T12:37:12;7.95;;;3.70;;
29902;SDS011;30288;50.514;9.678;2024-02-26T12:39:18;7.18;;;3.42;;
29902;SDS011;30288;50.514;9.678;2024-02-26T12:41:24;7.43;;;3.60;;
29902;SDS011;30288;50.514;9.678;2024-02-26T12:43:28;7.25;;;3.55;;
29902;SDS011;30288;50.514;9.678;2024-02-26T12:45:36;7.38;;;3.63;;